sensor_id;sensor_type;location;lat;lon;timestamp;temperature;humidity
10702;DHT22;5402;50.004;8.246;2022-12-13T00:00:46;-1.90;99.90
10702;DHT22;5402;50.004;8.246;2022-12-13T00:03:14;-2.00;99.90
10702;DHT22;5402;50.004;8.246;2022-12-13T00:05:44;-2.00;99.90
10702;DHT22;5402;50.004;8.246;2022-12-13T00:08:10;-2.00;99.90
10702;DHT22;5402;50.004;8.246;2022-12-13T00:10:37;-2.00;99.90
10702;DHT22;5402;50.004;8.246;2022-12-13T00:13:04;-2.00;99.90
10702;DHT22;5402;50.004;8.246;2022-12-13T00:15:31;-2.00;99.90
10702;DHT22;5402;50.004;8.246;2022-12-13T00:17:57;-2.10;99.90
10702;DHT22;5402;50.004;8.246;2022-12-13T00:20:28;-2.00;99.90
10702;DHT22;5402;50.004;8.246;2022-12-13T00:22:54;-2.00;99.90
10702;DHT22;5402;50.004;8.246;2022-12-13T00:25:21;-2.00;99.90
10702;DHT22;5402;50.004;8.246;2022-12-13T00:27:48;-2.10;99.90
10702;DHT22;5402;50.004;8.246;2022-12-13T00:30:15;-2.10;99.90
10702;DHT22;5402;50.004;8.246;2022-12-13T00:32:42;-2.10;99.90
10702;DHT22;5402;50.004;8.246;2022-12-13T00:35:09;-2.10;99.90
10702;DHT22;5402;50.004;8.246;2022-12-13T00:37:37;-2.10;99.90
10702;DHT22;5402;50.004;8.246;2022-12-13T00:40:04;-2.10;99.90
10702;DHT22;5402;50.004;8.246;2022-12-13T00:42:31;-2.10;99.90
10702;DHT22;5402;50.004;8.246;2022-12-13T00:44:58;-2.10;99.90
10702;DHT22;5402;50.004;8.246;2022-12-13T00:47:24;-2.10;99.90
10702;DHT22;5402;50.004;8.246;2022-12-13T00:49:51;-2.20;99.90
10702;DHT22;5402;50.004;8.246;2022-12-13T00:52:18;-2.20;99.90
10702;DHT22;5402;50.004;8.246;2022-12-13T00:54:46;-2.30;99.90
10702;DHT22;5402;50.004;8.246;2022-12-13T00:57:13;-2.30;99.90
10702;DHT22;5402;50.004;8.246;2022-12-13T00:59:39;-2.30;99.90
10702;DHT22;5402;50.004;8.246;2022-12-13T01:02:06;-2.30;99.90
10702;DHT22;5402;50.004;8.246;2022-12-13T01:04:33;-2.30;99.90
10702;DHT22;5402;50.004;8.246;2022-12-13T01:06:59;-2.30;99.90
10702;DHT22;5402;50.004;8.246;2022-12-13T01:09:26;-2.40;99.90
10702;DHT22;5402;50.004;8.246;2022-12-13T01:11:58;-2.40;99.90
10702;DHT22;5402;50.004;8.246;2022-12-13T01:14:25;-2.40;99.90
10702;DHT22;5402;50.004;8.246;2022-12-13T01:16:52;-2.40;99.90
10702;DHT22;5402;50.004;8.246;2022-12-13T01:19:20;-2.40;99.90
10702;DHT22;5402;50.004;8.246;2022-12-13T01:21:47;-2.40;99.90
10702;DHT22;5402;50.004;8.246;2022-12-13T01:24:14;-2.40;99.90
10702;DHT22;5402;50.004;8.246;2022-12-13T01:26:45;-2.50;99.90
10702;DHT22;5402;50.004;8.246;2022-12-13T01:29:13;-2.50;99.90
10702;DHT22;5402;50.004;8.246;2022-12-13T01:31:40;-2.50;99.90
10702;DHT22;5402;50.004;8.246;2022-12-13T01:34:07;-2.50;99.90
10702;DHT22;5402;50.004;8.246;2022-12-13T01:36:35;-2.50;99.90
10702;DHT22;5402;50.004;8.246;2022-12-13T01:39:02;-2.50;99.90
10702;DHT22;5402;50.004;8.246;2022-12-13T01:41:30;-2.50;99.90
10702;DHT22;5402;50.004;8.246;2022-12-13T01:43:59;-2.50;99.90
10702;DHT22;5402;50.004;8.246;2022-12-13T01:46:30;-2.60;99.90
10702;DHT22;5402;50.004;8.246;2022-12-13T01:49:02;-2.60;99.90
10702;DHT22;5402;50.004;8.246;2022-12-13T01:51:34;-2.60;99.90
10702;DHT22;5402;50.004;8.246;2022-12-13T01:54:04;-2.60;99.90
10702;DHT22;5402;50.004;8.246;2022-12-13T01:56:35;-2.60;99.90
10702;DHT22;5402;50.004;8.246;2022-12-13T01:59:04;-2.60;99.90
10702;DHT22;5402;50.004;8.246;2022-12-13T02:01:34;-2.60;99.90
10702;DHT22;5402;50.004;8.246;2022-12-13T02:04:01;-2.60;99.90
10702;DHT22;5402;50.004;8.246;2022-12-13T02:06:32;-2.60;99.90
10702;DHT22;5402;50.004;8.246;2022-12-13T02:09:00;-2.60;99.90
10702;DHT22;5402;50.004;8.246;2022-12-13T02:11:28;-2.70;99.90
10702;DHT22;5402;50.004;8.246;2022-12-13T02:13:55;-2.70;99.90
10702;DHT22;5402;50.004;8.246;2022-12-13T02:16:32;-2.70;99.90
10702;DHT22;5402;50.004;8.246;2022-12-13T02:19:32;-2.70;99.90
10702;DHT22;5402;50.004;8.246;2022-12-13T02:22:20;-2.70;99.90
10702;DHT22;5402;50.004;8.246;2022-12-13T02:25:09;-2.70;99.90
10702;DHT22;5402;50.004;8.246;2022-12-13T02:27:56;-2.80;99.90
10702;DHT22;5402;50.004;8.246;2022-12-13T02:30:34;-2.80;99.90
10702;DHT22;5402;50.004;8.246;2022-12-13T02:33:15;-2.80;99.90
10702;DHT22;5402;50.004;8.246;2022-12-13T02:35:51;-2.90;99.90
10702;DHT22;5402;50.004;8.246;2022-12-13T02:38:25;-2.80;99.90
10702;DHT22;5402;50.004;8.246;2022-12-13T02:40:56;-2.80;99.90
10702;DHT22;5402;50.004;8.246;2022-12-13T02:43:27;-2.90;99.90
10702;DHT22;5402;50.004;8.246;2022-12-13T02:46:00;-2.90;99.90
10702;DHT22;5402;50.004;8.246;2022-12-13T02:48:29;-2.90;99.90
10702;DHT22;5402;50.004;8.246;2022-12-13T02:50:58;-2.90;99.90
10702;DHT22;5402;50.004;8.246;2022-12-13T02:53:26;-3.00;99.90
10702;DHT22;5402;50.004;8.246;2022-12-13T02:55:53;-3.00;99.90
10702;DHT22;5402;50.004;8.246;2022-12-13T02:58:23;-3.00;99.90
10702;DHT22;5402;50.004;8.246;2022-12-13T03:00:56;-3.00;99.90
10702;DHT22;5402;50.004;8.246;2022-12-13T03:03:41;-3.00;99.90
10702;DHT22;5402;50.004;8.246;2022-12-13T03:06:22;-3.10;99.90
10702;DHT22;5402;50.004;8.246;2022-12-13T03:09:12;-3.10;99.90
10702;DHT22;5402;50.004;8.246;2022-12-13T03:11:52;-3.10;99.90
10702;DHT22;5402;50.004;8.246;2022-12-13T03:14:42;-3.10;99.90
10702;DHT22;5402;50.004;8.246;2022-12-13T03:17:13;-3.10;99.90
10702;DHT22;5402;50.004;8.246;2022-12-13T03:19:41;-3.20;99.90
10702;DHT22;5402;50.004;8.246;2022-12-13T03:22:09;-3.20;99.90
10702;DHT22;5402;50.004;8.246;2022-12-13T03:24:35;-3.20;99.90
10702;DHT22;5402;50.004;8.246;2022-12-13T03:27:03;-3.20;99.90
10702;DHT22;5402;50.004;8.246;2022-12-13T03:29:30;-3.20;99.90
10702;DHT22;5402;50.004;8.246;2022-12-13T03:31:56;-3.20;99.90
10702;DHT22;5402;50.004;8.246;2022-12-13T03:34:23;-3.20;99.90
10702;DHT22;5402;50.004;8.246;2022-12-13T03:36:51;-3.20;99.90
10702;DHT22;5402;50.004;8.246;2022-12-13T03:39:19;-3.30;99.90
10702;DHT22;5402;50.004;8.246;2022-12-13T03:41:46;-3.20;99.90
10702;DHT22;5402;50.004;8.246;2022-12-13T03:44:13;-3.30;99.90
10702;DHT22;5402;50.004;8.246;2022-12-13T03:46:40;-3.30;99.90
10702;DHT22;5402;50.004;8.246;2022-12-13T03:49:07;-3.30;99.90
10702;DHT22;5402;50.004;8.246;2022-12-13T03:51:33;-3.30;99.90
10702;DHT22;5402;50.004;8.246;2022-12-13T03:54:02;-3.30;99.90
10702;DHT22;5402;50.004;8.246;2022-12-13T03:56:29;-3.30;99.90
10702;DHT22;5402;50.004;8.246;2022-12-13T03:58:55;-3.40;99.90
10702;DHT22;5402;50.004;8.246;2022-12-13T04:01:22;-3.40;99.90
10702;DHT22;5402;50.004;8.246;2022-12-13T04:03:49;-3.40;99.90
10702;DHT22;5402;50.004;8.246;2022-12-13T04:06:15;-3.40;99.90
10702;DHT22;5402;50.004;8.246;2022-12-13T04:08:42;-3.40;99.90
10702;DHT22;5402;50.004;8.246;2022-12-13T04:11:10;-3.40;99.90
10702;DHT22;5402;50.004;8.246;2022-12-13T04:13:55;-3.40;99.90
10702;DHT22;5402;50.004;8.246;2022-12-13T04:16:22;-3.40;99.90
10702;DHT22;5402;50.004;8.246;2022-12-13T04:18:49;-3.40;99.90
10702;DHT22;5402;50.004;8.246;2022-12-13T04:21:16;-3.40;99.90
10702;DHT22;5402;50.004;8.246;2022-12-13T04:23:43;-3.40;99.90
10702;DHT22;5402;50.004;8.246;2022-12-13T04:26:11;-3.50;99.90
10702;DHT22;5402;50.004;8.246;2022-12-13T04:28:38;-3.50;99.90
10702;DHT22;5402;50.004;8.246;2022-12-13T04:31:05;-3.50;99.90
10702;DHT22;5402;50.004;8.246;2022-12-13T04:33:32;-3.50;99.90
10702;DHT22;5402;50.004;8.246;2022-12-13T04:35:58;-3.40;99.90
10702;DHT22;5402;50.004;8.246;2022-12-13T04:38:25;-3.40;99.90
10702;DHT22;5402;50.004;8.246;2022-12-13T04:40:52;-3.40;99.90
10702;DHT22;5402;50.004;8.246;2022-12-13T04:43:20;-3.40;99.90
10702;DHT22;5402;50.004;8.246;2022-12-13T04:45:47;-3.50;99.90
10702;DHT22;5402;50.004;8.246;2022-12-13T04:48:14;-3.50;99.90
10702;DHT22;5402;50.004;8.246;2022-12-13T04:50:41;-3.40;99.90
10702;DHT22;5402;50.004;8.246;2022-12-13T04:53:13;-3.40;99.90
10702;DHT22;5402;50.004;8.246;2022-12-13T04:55:40;-3.40;99.90
10702;DHT22;5402;50.004;8.246;2022-12-13T04:58:07;-3.40;99.90
10702;DHT22;5402;50.004;8.246;2022-12-13T05:00:35;-3.40;99.90
10702;DHT22;5402;50.004;8.246;2022-12-13T05:03:02;-3.40;99.90
10702;DHT22;5402;50.004;8.246;2022-12-13T05:05:28;-3.40;99.90
10702;DHT22;5402;50.004;8.246;2022-12-13T05:07:55;-3.50;99.90
10702;DHT22;5402;50.004;8.246;2022-12-13T05:10:22;-3.40;99.90
10702;DHT22;5402;50.004;8.246;2022-12-13T05:12:49;-3.40;99.90
10702;DHT22;5402;50.004;8.246;2022-12-13T05:15:15;-3.50;99.90
10702;DHT22;5402;50.004;8.246;2022-12-13T05:17:43;-3.40;99.90
10702;DHT22;5402;50.004;8.246;2022-12-13T05:20:10;-3.50;99.90
10702;DHT22;5402;50.004;8.246;2022-12-13T05:22:37;-3.50;99.90
10702;DHT22;5402;50.004;8.246;2022-12-13T05:25:05;-3.50;99.90
10702;DHT22;5402;50.004;8.246;2022-12-13T05:27:32;-3.50;99.90
10702;DHT22;5402;50.004;8.246;2022-12-13T05:29:58;-3.40;99.90
10702;DHT22;5402;50.004;8.246;2022-12-13T05:32:25;-3.40;99.90
10702;DHT22;5402;50.004;8.246;2022-12-13T05:34:53;-3.50;99.90
10702;DHT22;5402;50.004;8.246;2022-12-13T05:37:20;-3.50;99.90
10702;DHT22;5402;50.004;8.246;2022-12-13T05:39:47;-3.40;99.90
10702;DHT22;5402;50.004;8.246;2022-12-13T05:42:13;-3.50;99.90
10702;DHT22;5402;50.004;8.246;2022-12-13T05:44:40;-3.50;99.90
10702;DHT22;5402;50.004;8.246;2022-12-13T05:47:07;-3.50;99.90
10702;DHT22;5402;50.004;8.246;2022-12-13T05:49:33;-3.50;99.90
10702;DHT22;5402;50.004;8.246;2022-12-13T05:52:02;-3.50;99.90
10702;DHT22;5402;50.004;8.246;2022-12-13T05:54:29;-3.50;99.90
10702;DHT22;5402;50.004;8.246;2022-12-13T05:56:56;-3.50;99.90
10702;DHT22;5402;50.004;8.246;2022-12-13T05:59:23;-3.50;99.90
10702;DHT22;5402;50.004;8.246;2022-12-13T06:01:49;-3.50;99.90
10702;DHT22;5402;50.004;8.246;2022-12-13T06:04:17;-3.50;99.90
10702;DHT22;5402;50.004;8.246;2022-12-13T06:06:44;-3.50;99.90
10702;DHT22;5402;50.004;8.246;2022-12-13T06:09:12;-3.50;99.90
10702;DHT22;5402;50.004;8.246;2022-12-13T06:11:39;-3.50;99.90
10702;DHT22;5402;50.004;8.246;2022-12-13T06:14:06;-3.50;99.90
10702;DHT22;5402;50.004;8.246;2022-12-13T06:16:32;-3.50;99.90
10702;DHT22;5402;50.004;8.246;2022-12-13T06:18:59;-3.50;99.90
10702;DHT22;5402;50.004;8.246;2022-12-13T06:21:26;-3.50;99.90
10702;DHT22;5402;50.004;8.246;2022-12-13T06:23:55;-3.50;99.90
10702;DHT22;5402;50.004;8.246;2022-12-13T06:26:23;-3.50;99.90
10702;DHT22;5402;50.004;8.246;2022-12-13T06:28:50;-3.50;99.90
10702;DHT22;5402;50.004;8.246;2022-12-13T06:31:17;-3.50;99.90
10702;DHT22;5402;50.004;8.246;2022-12-13T06:33:44;-3.50;99.90
10702;DHT22;5402;50.004;8.246;2022-12-13T06:36:10;-3.50;99.90
10702;DHT22;5402;50.004;8.246;2022-12-13T06:38:37;-3.50;99.90
10702;DHT22;5402;50.004;8.246;2022-12-13T06:41:09;-3.50;99.90
10702;DHT22;5402;50.004;8.246;2022-12-13T06:43:40;-3.60;99.90
10702;DHT22;5402;50.004;8.246;2022-12-13T06:46:07;-3.70;99.90
10702;DHT22;5402;50.004;8.246;2022-12-13T06:48:34;-3.70;99.90
10702;DHT22;5402;50.004;8.246;2022-12-13T06:51:01;-3.70;99.90
10702;DHT22;5402;50.004;8.246;2022-12-13T06:53:29;-3.60;99.90
10702;DHT22;5402;50.004;8.246;2022-12-13T06:55:56;-3.70;99.90
10702;DHT22;5402;50.004;8.246;2022-12-13T06:58:23;-3.60;99.90
10702;DHT22;5402;50.004;8.246;2022-12-13T07:01:00;-3.70;99.90
10702;DHT22;5402;50.004;8.246;2022-12-13T07:03:27;-3.60;99.90
10702;DHT22;5402;50.004;8.246;2022-12-13T07:05:54;-3.60;99.90
10702;DHT22;5402;50.004;8.246;2022-12-13T07:08:21;-3.60;99.90
10702;DHT22;5402;50.004;8.246;2022-12-13T07:10:48;-3.60;99.90
10702;DHT22;5402;50.004;8.246;2022-12-13T07:13:15;-3.60;99.90
10702;DHT22;5402;50.004;8.246;2022-12-13T07:15:42;-3.50;99.90
10702;DHT22;5402;50.004;8.246;2022-12-13T07:18:10;-3.50;99.90
10702;DHT22;5402;50.004;8.246;2022-12-13T07:20:37;-3.50;99.90
10702;DHT22;5402;50.004;8.246;2022-12-13T07:23:04;-3.50;99.90
10702;DHT22;5402;50.004;8.246;2022-12-13T07:25:31;-3.40;99.90
10702;DHT22;5402;50.004;8.246;2022-12-13T07:28:00;-3.40;99.90
10702;DHT22;5402;50.004;8.246;2022-12-13T07:30:27;-3.40;99.90
10702;DHT22;5402;50.004;8.246;2022-12-13T07:32:54;-3.40;99.90
10702;DHT22;5402;50.004;8.246;2022-12-13T07:35:22;-3.30;99.90
10702;DHT22;5402;50.004;8.246;2022-12-13T07:37:49;-3.30;99.90
10702;DHT22;5402;50.004;8.246;2022-12-13T07:40:16;-3.30;99.90
10702;DHT22;5402;50.004;8.246;2022-12-13T07:42:48;-3.30;99.90
10702;DHT22;5402;50.004;8.246;2022-12-13T07:45:15;-3.30;99.90
10702;DHT22;5402;50.004;8.246;2022-12-13T07:47:42;-3.20;99.90
10702;DHT22;5402;50.004;8.246;2022-12-13T07:50:09;-3.20;99.90
10702;DHT22;5402;50.004;8.246;2022-12-13T07:52:37;-3.20;99.90
10702;DHT22;5402;50.004;8.246;2022-12-13T07:55:05;-3.20;99.90
10702;DHT22;5402;50.004;8.246;2022-12-13T07:57:32;-3.20;99.90
10702;DHT22;5402;50.004;8.246;2022-12-13T07:59:59;-3.20;99.90
10702;DHT22;5402;50.004;8.246;2022-12-13T08:02:26;-3.10;99.90
10702;DHT22;5402;50.004;8.246;2022-12-13T08:04:53;-3.10;99.90
10702;DHT22;5402;50.004;8.246;2022-12-13T08:07:20;-3.00;99.90
10702;DHT22;5402;50.004;8.246;2022-12-13T08:09:48;-3.10;99.90
10702;DHT22;5402;50.004;8.246;2022-12-13T08:12:14;-2.90;99.90
10702;DHT22;5402;50.004;8.246;2022-12-13T08:14:41;-3.00;99.90
10702;DHT22;5402;50.004;8.246;2022-12-13T08:17:08;-2.90;99.90
10702;DHT22;5402;50.004;8.246;2022-12-13T08:19:34;-2.90;99.90
10702;DHT22;5402;50.004;8.246;2022-12-13T08:22:01;-2.90;99.90
10702;DHT22;5402;50.004;8.246;2022-12-13T08:24:29;-2.90;99.90
10702;DHT22;5402;50.004;8.246;2022-12-13T08:26:59;-2.90;99.90
10702;DHT22;5402;50.004;8.246;2022-12-13T08:29:26;-2.90;99.90
10702;DHT22;5402;50.004;8.246;2022-12-13T08:31:53;-2.80;99.90
10702;DHT22;5402;50.004;8.246;2022-12-13T08:34:20;-2.80;99.90
10702;DHT22;5402;50.004;8.246;2022-12-13T08:36:47;-2.70;99.90
10702;DHT22;5402;50.004;8.246;2022-12-13T08:39:14;-2.60;99.90
10702;DHT22;5402;50.004;8.246;2022-12-13T08:41:41;-2.60;99.90
10702;DHT22;5402;50.004;8.246;2022-12-13T08:44:09;-2.50;99.90
10702;DHT22;5402;50.004;8.246;2022-12-13T08:46:37;-2.30;99.90
10702;DHT22;5402;50.004;8.246;2022-12-13T08:49:03;-2.30;99.90
10702;DHT22;5402;50.004;8.246;2022-12-13T08:51:30;-2.40;99.90
10702;DHT22;5402;50.004;8.246;2022-12-13T08:53:57;-1.70;99.90
10702;DHT22;5402;50.004;8.246;2022-12-13T08:56:24;-2.40;99.90
10702;DHT22;5402;50.004;8.246;2022-12-13T08:58:50;-2.30;99.90
10702;DHT22;5402;50.004;8.246;2022-12-13T09:01:19;-2.20;99.90
10702;DHT22;5402;50.004;8.246;2022-12-13T09:03:45;-2.20;99.90
10702;DHT22;5402;50.004;8.246;2022-12-13T09:06:15;-2.10;99.90
10702;DHT22;5402;50.004;8.246;2022-12-13T09:08:42;-2.10;99.90
10702;DHT22;5402;50.004;8.246;2022-12-13T09:11:11;-2.10;99.90
10702;DHT22;5402;50.004;8.246;2022-12-13T09:13:38;-2.10;99.90
10702;DHT22;5402;50.004;8.246;2022-12-13T09:16:07;-2.00;99.90
10702;DHT22;5402;50.004;8.246;2022-12-13T09:18:36;-2.00;99.90
10702;DHT22;5402;50.004;8.246;2022-12-13T09:21:06;-2.00;99.90
10702;DHT22;5402;50.004;8.246;2022-12-13T09:23:33;-2.00;99.90
10702;DHT22;5402;50.004;8.246;2022-12-13T09:26:00;-1.90;99.90
10702;DHT22;5402;50.004;8.246;2022-12-13T09:28:27;-1.80;99.90
10702;DHT22;5402;50.004;8.246;2022-12-13T09:30:56;-1.80;99.90
10702;DHT22;5402;50.004;8.246;2022-12-13T09:33:23;-1.80;99.90
10702;DHT22;5402;50.004;8.246;2022-12-13T09:35:51;-1.80;99.90
10702;DHT22;5402;50.004;8.246;2022-12-13T09:38:18;-1.70;99.90
10702;DHT22;5402;50.004;8.246;2022-12-13T09:40:47;-1.90;99.90
10702;DHT22;5402;50.004;8.246;2022-12-13T09:43:20;-1.50;99.90
10702;DHT22;5402;50.004;8.246;2022-12-13T09:45:49;-1.50;99.90
10702;DHT22;5402;50.004;8.246;2022-12-13T09:48:17;-1.30;99.90
10702;DHT22;5402;50.004;8.246;2022-12-13T09:50:46;-1.30;99.90
10702;DHT22;5402;50.004;8.246;2022-12-13T09:53:16;-1.30;99.90
10702;DHT22;5402;50.004;8.246;2022-12-13T09:55:46;-1.30;99.90
10702;DHT22;5402;50.004;8.246;2022-12-13T09:58:17;-1.30;99.90
10702;DHT22;5402;50.004;8.246;2022-12-13T10:00:46;-1.20;99.90
10702;DHT22;5402;50.004;8.246;2022-12-13T10:03:15;-1.00;99.90
10702;DHT22;5402;50.004;8.246;2022-12-13T10:05:44;-1.20;99.90
10702;DHT22;5402;50.004;8.246;2022-12-13T10:08:13;-1.30;99.90
10702;DHT22;5402;50.004;8.246;2022-12-13T10:10:41;-1.30;99.90
10702;DHT22;5402;50.004;8.246;2022-12-13T10:13:13;-1.30;99.90
10702;DHT22;5402;50.004;8.246;2022-12-13T10:15:45;-1.30;99.90
10702;DHT22;5402;50.004;8.246;2022-12-13T10:18:19;-1.30;99.90
10702;DHT22;5402;50.004;8.246;2022-12-13T10:20:48;-1.40;99.90
10702;DHT22;5402;50.004;8.246;2022-12-13T10:23:15;-1.30;99.90
10702;DHT22;5402;50.004;8.246;2022-12-13T10:25:49;-1.20;99.90
10702;DHT22;5402;50.004;8.246;2022-12-13T10:28:25;-1.10;99.90
10702;DHT22;5402;50.004;8.246;2022-12-13T10:30:52;-1.10;99.90
10702;DHT22;5402;50.004;8.246;2022-12-13T10:33:22;-1.00;99.90
10702;DHT22;5402;50.004;8.246;2022-12-13T10:36:03;-0.90;99.90
10702;DHT22;5402;50.004;8.246;2022-12-13T10:38:34;-0.90;99.90
10702;DHT22;5402;50.004;8.246;2022-12-13T10:41:03;-0.90;99.90
10702;DHT22;5402;50.004;8.246;2022-12-13T10:44:13;-0.90;99.90
10702;DHT22;5402;50.004;8.246;2022-12-13T10:46:47;-0.90;99.90
10702;DHT22;5402;50.004;8.246;2022-12-13T10:49:16;-0.80;99.90
10702;DHT22;5402;50.004;8.246;2022-12-13T10:51:43;-0.80;99.90
10702;DHT22;5402;50.004;8.246;2022-12-13T10:54:14;-0.70;99.90
10702;DHT22;5402;50.004;8.246;2022-12-13T10:56:45;-0.70;99.90
10702;DHT22;5402;50.004;8.246;2022-12-13T10:59:24;-0.70;99.90
10702;DHT22;5402;50.004;8.246;2022-12-13T11:01:52;-0.80;99.90
10702;DHT22;5402;50.004;8.246;2022-12-13T11:04:23;-0.70;99.90
10702;DHT22;5402;50.004;8.246;2022-12-13T11:06:50;-0.60;99.90
10702;DHT22;5402;50.004;8.246;2022-12-13T11:09:24;-0.50;99.90
10702;DHT22;5402;50.004;8.246;2022-12-13T11:11:53;-0.50;99.90
10702;DHT22;5402;50.004;8.246;2022-12-13T11:14:23;-0.70;99.90
10702;DHT22;5402;50.004;8.246;2022-12-13T11:16:54;-0.60;99.90
10702;DHT22;5402;50.004;8.246;2022-12-13T11:19:26;-0.70;99.90
10702;DHT22;5402;50.004;8.246;2022-12-13T11:21:55;-0.80;99.90
10702;DHT22;5402;50.004;8.246;2022-12-13T11:24:24;-0.70;99.90
10702;DHT22;5402;50.004;8.246;2022-12-13T11:26:58;-0.80;99.90
10702;DHT22;5402;50.004;8.246;2022-12-13T11:29:47;-0.80;99.90
10702;DHT22;5402;50.004;8.246;2022-12-13T11:32:25;-0.80;99.90
10702;DHT22;5402;50.004;8.246;2022-12-13T11:35:00;-0.70;99.90
10702;DHT22;5402;50.004;8.246;2022-12-13T11:37:32;-0.70;99.90
10702;DHT22;5402;50.004;8.246;2022-12-13T11:40:08;-0.70;99.90
10702;DHT22;5402;50.004;8.246;2022-12-13T11:42:42;-0.80;99.90
10702;DHT22;5402;50.004;8.246;2022-12-13T11:45:13;-0.70;99.90
10702;DHT22;5402;50.004;8.246;2022-12-13T11:47:44;-0.80;99.90
10702;DHT22;5402;50.004;8.246;2022-12-13T11:50:17;-0.70;99.90
10702;DHT22;5402;50.004;8.246;2022-12-13T11:52:48;-0.70;99.90
10702;DHT22;5402;50.004;8.246;2022-12-13T11:55:21;-0.70;99.90
10702;DHT22;5402;50.004;8.246;2022-12-13T11:57:56;-0.70;99.90
10702;DHT22;5402;50.004;8.246;2022-12-13T12:00:32;-0.70;99.90
10702;DHT22;5402;50.004;8.246;2022-12-13T12:03:06;-0.60;99.90
10702;DHT22;5402;50.004;8.246;2022-12-13T12:05:41;-0.60;99.90
10702;DHT22;5402;50.004;8.246;2022-12-13T12:08:14;-0.60;99.90
10702;DHT22;5402;50.004;8.246;2022-12-13T12:10:45;-0.50;99.90
10702;DHT22;5402;50.004;8.246;2022-12-13T12:13:17;-0.50;99.90
10702;DHT22;5402;50.004;8.246;2022-12-13T12:15:49;-0.50;99.90
10702;DHT22;5402;50.004;8.246;2022-12-13T12:18:19;-0.50;99.90
10702;DHT22;5402;50.004;8.246;2022-12-13T12:20:59;-0.50;99.90
10702;DHT22;5402;50.004;8.246;2022-12-13T12:23:40;-0.50;99.90
10702;DHT22;5402;50.004;8.246;2022-12-13T12:26:14;-0.50;99.90
10702;DHT22;5402;50.004;8.246;2022-12-13T12:28:55;-0.60;99.90
10702;DHT22;5402;50.004;8.246;2022-12-13T12:31:30;-0.50;99.90
10702;DHT22;5402;50.004;8.246;2022-12-13T12:34:01;-0.50;99.90
10702;DHT22;5402;50.004;8.246;2022-12-13T12:36:41;-0.50;99.90
10702;DHT22;5402;50.004;8.246;2022-12-13T12:39:23;-0.50;99.90
10702;DHT22;5402;50.004;8.246;2022-12-13T12:42:01;-0.50;99.90
10702;DHT22;5402;50.004;8.246;2022-12-13T12:44:40;-0.50;99.90
10702;DHT22;5402;50.004;8.246;2022-12-13T12:47:23;-0.40;99.90
10702;DHT22;5402;50.004;8.246;2022-12-13T12:50:21;-0.50;99.90
10702;DHT22;5402;50.004;8.246;2022-12-13T12:52:58;-0.50;99.90
10702;DHT22;5402;50.004;8.246;2022-12-13T12:55:36;-0.50;99.90
10702;DHT22;5402;50.004;8.246;2022-12-13T12:58:10;-0.50;99.90
10702;DHT22;5402;50.004;8.246;2022-12-13T13:00:44;-0.50;99.90
10702;DHT22;5402;50.004;8.246;2022-12-13T13:03:17;-0.60;99.90
10702;DHT22;5402;50.004;8.246;2022-12-13T13:05:48;-0.60;99.90
10702;DHT22;5402;50.004;8.246;2022-12-13T13:08:20;-0.60;99.90
10702;DHT22;5402;50.004;8.246;2022-12-13T13:10:47;-0.70;99.90
10702;DHT22;5402;50.004;8.246;2022-12-13T13:13:43;-0.70;99.90
10702;DHT22;5402;50.004;8.246;2022-12-13T13:16:34;-0.70;99.90
10702;DHT22;5402;50.004;8.246;2022-12-13T13:19:02;-0.60;99.90
10702;DHT22;5402;50.004;8.246;2022-12-13T13:21:43;-0.60;99.90
10702;DHT22;5402;50.004;8.246;2022-12-13T13:24:15;-0.70;99.90
10702;DHT22;5402;50.004;8.246;2022-12-13T13:26:43;-0.70;99.90
10702;DHT22;5402;50.004;8.246;2022-12-13T13:29:29;-0.60;99.90
10702;DHT22;5402;50.004;8.246;2022-12-13T13:31:59;-0.60;99.90
10702;DHT22;5402;50.004;8.246;2022-12-13T13:34:29;-0.50;99.90
10702;DHT22;5402;50.004;8.246;2022-12-13T13:36:56;-0.50;99.90
10702;DHT22;5402;50.004;8.246;2022-12-13T13:42:25;-0.50;99.90
10702;DHT22;5402;50.004;8.246;2022-12-13T13:45:18;-0.50;99.90
10702;DHT22;5402;50.004;8.246;2022-12-13T13:48:05;-0.40;99.90
10702;DHT22;5402;50.004;8.246;2022-12-13T13:53:56;-0.30;99.90
10702;DHT22;5402;50.004;8.246;2022-12-13T13:56:43;-0.20;99.90
10702;DHT22;5402;50.004;8.246;2022-12-13T14:02:40;-0.20;99.90
10702;DHT22;5402;50.004;8.246;2022-12-13T14:09:03;-0.20;99.90
10702;DHT22;5402;50.004;8.246;2022-12-13T14:12:06;-0.30;99.90
10702;DHT22;5402;50.004;8.246;2022-12-13T14:18:38;-0.30;99.90
10702;DHT22;5402;50.004;8.246;2022-12-13T14:21:16;-0.30;99.90
10702;DHT22;5402;50.004;8.246;2022-12-13T14:23:54;-0.40;99.90
10702;DHT22;5402;50.004;8.246;2022-12-13T14:26:38;-0.40;99.90
10702;DHT22;5402;50.004;8.246;2022-12-13T14:29:11;-0.50;99.90
10702;DHT22;5402;50.004;8.246;2022-12-13T14:31:42;-0.50;99.90
10702;DHT22;5402;50.004;8.246;2022-12-13T14:34:18;-0.50;99.90
10702;DHT22;5402;50.004;8.246;2022-12-13T14:36:53;-0.50;99.90
10702;DHT22;5402;50.004;8.246;2022-12-13T14:39:23;-0.60;99.90
10702;DHT22;5402;50.004;8.246;2022-12-13T14:41:51;-0.60;99.90
10702;DHT22;5402;50.004;8.246;2022-12-13T14:44:21;-0.70;99.90
10702;DHT22;5402;50.004;8.246;2022-12-13T14:46:50;-0.60;99.90
10702;DHT22;5402;50.004;8.246;2022-12-13T14:49:18;-0.70;99.90
10702;DHT22;5402;50.004;8.246;2022-12-13T14:51:46;-0.70;99.90
10702;DHT22;5402;50.004;8.246;2022-12-13T14:54:18;-0.70;99.90
10702;DHT22;5402;50.004;8.246;2022-12-13T14:56:58;-0.80;99.90
10702;DHT22;5402;50.004;8.246;2022-12-13T14:59:26;-0.80;99.90
10702;DHT22;5402;50.004;8.246;2022-12-13T15:01:55;-0.80;99.90
10702;DHT22;5402;50.004;8.246;2022-12-13T15:04:26;-0.90;99.90
10702;DHT22;5402;50.004;8.246;2022-12-13T15:07:05;-0.80;99.90
10702;DHT22;5402;50.004;8.246;2022-12-13T15:09:35;-0.90;99.90
10702;DHT22;5402;50.004;8.246;2022-12-13T15:12:11;-1.00;99.90
10702;DHT22;5402;50.004;8.246;2022-12-13T15:14:42;-0.90;99.90
10702;DHT22;5402;50.004;8.246;2022-12-13T15:17:25;-1.00;99.90
10702;DHT22;5402;50.004;8.246;2022-12-13T15:19:52;-1.00;99.90
10702;DHT22;5402;50.004;8.246;2022-12-13T15:22:19;-1.00;99.90
10702;DHT22;5402;50.004;8.246;2022-12-13T15:24:46;-1.00;99.90
10702;DHT22;5402;50.004;8.246;2022-12-13T15:27:16;-1.00;99.90
10702;DHT22;5402;50.004;8.246;2022-12-13T15:29:43;-1.10;99.90
10702;DHT22;5402;50.004;8.246;2022-12-13T15:32:13;-1.10;99.90
10702;DHT22;5402;50.004;8.246;2022-12-13T15:34:44;-1.10;99.90
10702;DHT22;5402;50.004;8.246;2022-12-13T15:37:23;-1.10;99.90
10702;DHT22;5402;50.004;8.246;2022-12-13T15:39:54;-1.10;99.90
10702;DHT22;5402;50.004;8.246;2022-12-13T15:42:26;-1.20;99.90
10702;DHT22;5402;50.004;8.246;2022-12-13T15:44:55;-1.20;99.90
10702;DHT22;5402;50.004;8.246;2022-12-13T15:47:24;-1.20;99.90
10702;DHT22;5402;50.004;8.246;2022-12-13T15:49:53;-1.20;99.90
10702;DHT22;5402;50.004;8.246;2022-12-13T15:52:30;-1.20;99.90
10702;DHT22;5402;50.004;8.246;2022-12-13T15:54:59;-1.10;99.90
10702;DHT22;5402;50.004;8.246;2022-12-13T15:57:31;-1.20;99.90
10702;DHT22;5402;50.004;8.246;2022-12-13T16:00:05;-1.20;99.90
10702;DHT22;5402;50.004;8.246;2022-12-13T16:02:33;-1.30;99.90
10702;DHT22;5402;50.004;8.246;2022-12-13T16:05:07;-1.30;99.90
10702;DHT22;5402;50.004;8.246;2022-12-13T16:07:35;-1.30;99.90
10702;DHT22;5402;50.004;8.246;2022-12-13T16:10:05;-1.30;99.90
10702;DHT22;5402;50.004;8.246;2022-12-13T16:12:38;-1.30;99.90
10702;DHT22;5402;50.004;8.246;2022-12-13T16:15:13;-1.30;99.90
10702;DHT22;5402;50.004;8.246;2022-12-13T16:17:40;-1.30;99.90
10702;DHT22;5402;50.004;8.246;2022-12-13T16:20:12;-1.30;99.90
10702;DHT22;5402;50.004;8.246;2022-12-13T16:22:39;-1.30;99.90